Time;durP1;ratioP1;P1;durP2;ratioP2;P2;SDS_P1;SDS_P2;PMS_P1;PMS_P2;Temp;Humidity;BMP_temperature;BMP_pressure;BME280_temperature;BME280_humidity;BME280_pressure;Samples;Min_cycle;Max_cycle;Signal;HPM_P1;HPM_P2
2024/01/16 00:01:50;;;;;;;18.30;14.35;;;;;;;-2.08;100.00;96604.13;1224984;75;2913808;-64
2024/01/16 00:04:22;;;;;;;16.30;11.90;;;;;;;-2.16;100.00;96605.47;1224423;75;2915037;-64
2024/01/16 00:06:55;;;;;;;15.90;11.40;;;;;;;-2.26;100.00;96604.53;1224708;75;2915655;-64
2024/01/16 00:09:28;;;;;;;14.15;10.15;;;;;;;-2.20;100.00;96618.19;1225761;75;2916626;-62
2024/01/16 00:12:01;;;;;;;12.65;9.05;;;;;;;-2.20;100.00;96620.84;1225204;75;2916651;-65
2024/01/16 00:14:39;;;;;;;12.30;9.00;;;;;;;-2.42;100.00;96631.28;1225417;75;2926814;-64
2024/01/16 00:17:12;;;;;;;11.20;7.60;;;;;;;-2.36;100.00;96629.59;1225623;75;2916411;-66
2024/01/16 00:19:45;;;;;;;11.95;8.65;;;;;;;-2.41;100.00;96635.44;1225798;75;2945760;-63
2024/01/16 00:22:17;;;;;;;11.35;7.50;;;;;;;-2.54;100.00;96648.72;1225387;75;2921364;-63
2024/01/16 00:24:50;;;;;;;11.40;7.70;;;;;;;-2.49;100.00;96653.59;1225041;75;2912327;-63
2024/01/16 00:27:23;;;;;;;10.45;6.90;;;;;;;-2.60;100.00;96647.69;1224804;75;2922064;-65
2024/01/16 00:29:58;;;;;;;10.85;6.85;;;;;;;-2.68;100.00;96662.41;1225568;75;2919252;-66
2024/01/16 00:32:31;;;;;;;10.05;6.75;;;;;;;-2.73;100.00;96666.31;1225932;75;2913048;-66
2024/01/16 00:35:04;;;;;;;11.15;7.15;;;;;;;-2.80;100.00;96658.41;1225317;75;2916894;-65
2024/01/16 00:37:37;;;;;;;9.30;6.20;;;;;;;-2.83;100.00;96668.03;1225513;75;2919622;-66
2024/01/16 00:40:11;;;;;;;8.75;6.05;;;;;;;-2.77;100.00;96668.28;1225282;75;2914195;-64
2024/01/16 00:42:44;;;;;;;8.05;5.55;;;;;;;-2.79;100.00;96679.44;1225291;75;2917624;-66
2024/01/16 00:45:21;;;;;;;8.55;6.30;;;;;;;-3.04;100.00;96671.09;1225490;75;2921189;-67
2024/01/16 00:47:54;;;;;;;7.95;5.20;;;;;;;-2.98;100.00;96680.16;1225409;75;2919129;-64
2024/01/16 00:50:26;;;;;;;7.40;5.20;;;;;;;-3.03;100.00;96677.94;1225324;75;2921511;-63
2024/01/16 00:52:59;;;;;;;7.30;5.25;;;;;;;-3.10;100.00;96672.72;1225625;75;2917138;-64
2024/01/16 00:55:32;;;;;;;7.40;5.85;;;;;;;-3.25;100.00;96682.91;1225201;75;2917809;-64
2024/01/16 00:58:05;;;;;;;9.80;6.30;;;;;;;-3.35;100.00;96689.19;1224972;75;2917321;-62
2024/01/16 01:00:40;;;;;;;9.55;6.55;;;;;;;-3.25;100.00;96702.41;1225026;75;2924855;-66
2024/01/16 01:03:13;;;;;;;6.70;5.45;;;;;;;-3.31;100.00;96703.28;1224380;75;2924547;-66
2024/01/16 01:05:46;;;;;;;9.50;6.40;;;;;;;-3.38;100.00;96703.38;1225322;75;2919165;-66
2024/01/16 01:08:19;;;;;;;9.80;6.70;;;;;;;-3.50;100.00;96710.06;1224429;75;2915761;-66
2024/01/16 01:10:51;;;;;;;11.00;7.30;;;;;;;-3.71;100.00;96719.16;1225142;75;2915634;-65
2024/01/16 01:13:24;;;;;;;8.90;6.60;;;;;;;-3.57;100.00;96718.19;1225097;75;2916369;-65
2024/01/16 01:16:00;;;;;;;8.25;6.20;;;;;;;-3.48;100.00;96723.78;1225057;75;2920643;-65
2024/01/16 01:18:33;;;;;;;7.50;5.50;;;;;;;-3.56;100.00;96739.19;1225090;75;2914206;-64
2024/01/16 01:21:06;;;;;;;5.75;4.45;;;;;;;-3.52;100.00;96731.09;1225195;75;2926822;-64
2024/01/16 01:23:39;;;;;;;8.10;4.90;;;;;;;-3.52;100.00;96731.09;1225648;75;2917647;-66
2024/01/16 01:26:13;;;;;;;6.90;4.65;;;;;;;-3.59;100.00;96729.28;1224892;75;2919533;-67
2024/01/16 01:28:46;;;;;;;7.75;4.65;;;;;;;-3.67;100.00;96738.59;1225283;75;2918719;-63
2024/01/16 01:31:21;;;;;;;6.00;4.25;;;;;;;-3.66;100.00;96743.50;1225507;75;2913152;-65
2024/01/16 01:33:54;;;;;;;9.20;5.75;;;;;;;-3.94;100.00;96747.34;1224780;75;2917068;-63
2024/01/16 01:36:27;;;;;;;7.60;5.40;;;;;;;-3.89;100.00;96752.25;1225645;75;2917791;-67
2024/01/16 01:39:00;;;;;;;7.65;5.60;;;;;;;-3.83;100.00;96746.44;1225178;75;2917481;-64
2024/01/16 01:41:32;;;;;;;7.40;4.60;;;;;;;-3.79;100.00;96745.22;1225738;75;2918050;-63
2024/01/16 01:44:05;;;;;;;7.15;5.10;;;;;;;-4.04;100.00;96766.94;1224830;75;2932787;-66
2024/01/16 01:46:41;;;;;;;6.60;4.80;;;;;;;-3.91;100.00;96754.56;1224220;75;2916113;-66
2024/01/16 01:49:15;;;;;;;7.00;5.15;;;;;;;-3.84;100.00;96750.28;1224914;75;2924881;-63
2024/01/16 01:51:48;;;;;;;6.85;5.05;;;;;;;-4.02;100.00;96756.59;1225927;75;2919652;-63
2024/01/16 01:54:22;;;;;;;6.40;4.25;;;;;;;-4.09;100.00;96762.81;1224076;75;2919853;-63
2024/01/16 01:56:55;;;;;;;7.90;4.30;;;;;;;-4.06;100.00;96761.25;1224702;75;2920708;-65
2024/01/16 01:59:29;;;;;;;7.15;4.20;;;;;;;-4.20;100.00;96766.75;1225651;75;2911656;-66
2024/01/16 02:02:05;;;;;;;6.30;4.45;;;;;;;-4.15;100.00;96768.97;1224905;75;2920272;-65
2024/01/16 02:04:40;;;;;;;8.65;6.05;;;;;;;-4.40;100.00;96771.91;1225863;75;2911965;-68
2024/01/16 02:07:14;;;;;;;6.30;4.80;;;;;;;-4.28;100.00;96771.44;1224739;75;2917984;-64
2024/01/16 02:09:47;;;;;;;7.00;4.95;;;;;;;-4.31;100.00;96766.84;1225173;75;2887099;-67
2024/01/16 02:12:20;;;;;;;5.55;4.25;;;;;;;-4.30;100.00;96779.06;1224847;75;2918526;-64
2024/01/16 02:14:52;;;;;;;5.95;4.20;;;;;;;-4.47;100.00;96772.75;1224697;75;2913494;-65
2024/01/16 02:17:28;;;;;;;7.50;4.95;;;;;;;-4.59;100.00;96786.63;1225319;75;2884414;-67
2024/01/16 02:20:01;;;;;;;7.75;5.70;;;;;;;-4.61;100.00;96776.31;1225132;75;2921342;-65
2024/01/16 02:22:37;;;;;;;6.90;4.85;;;;;;;-4.64;100.00;96782.47;1224333;75;2918027;-64
2024/01/16 02:25:13;;;;;;;8.30;4.95;;;;;;;-4.54;100.00;96786.94;1225341;75;2916277;-65
2024/01/16 02:27:45;;;;;;;7.50;4.40;;;;;;;-4.43;100.00;96796.75;1225390;75;2921267;-66
2024/01/16 02:30:18;;;;;;;5.15;3.60;;;;;;;-4.44;100.00;96793.34;1225305;75;2897589;-67
2024/01/16 02:32:51;;;;;;;4.85;3.65;;;;;;;-4.50;100.00;96797.56;1224516;75;2916152;-66
2024/01/16 02:35:24;;;;;;;5.10;3.90;;;;;;;-4.72;100.00;96794.34;1223918;75;2920356;-65
2024/01/16 02:37:57;;;;;;;6.20;4.60;;;;;;;-4.90;100.00;96802.53;1224822;75;2918789;-63
2024/01/16 02:40:32;;;;;;;6.60;4.45;;;;;;;-4.74;100.00;96813.47;1223966;75;2921081;-63
2024/01/16 02:43:05;;;;;;;5.25;4.10;;;;;;;-4.76;100.00;96801.66;1223988;75;2921325;-63
2024/01/16 02:45:38;;;;;;;7.10;4.70;;;;;;;-4.86;100.00;96811.25;1224272;75;2922953;-64
2024/01/16 02:48:11;;;;;;;7.10;4.90;;;;;;;-4.85;100.00;96822.69;1223776;75;2928209;-63
2024/01/16 02:50:44;;;;;;;7.15;4.55;;;;;;;-4.71;100.00;96820.66;1223402;75;2929645;-65
2024/01/16 02:53:17;;;;;;;5.85;4.25;;;;;;;-4.85;100.00;96812.78;1223806;75;2944288;-67
2024/01/16 02:55:52;;;;;;;5.55;4.00;;;;;;;-4.88;100.00;96818.13;1224377;75;2921784;-64
2024/01/16 02:58:25;;;;;;;5.85;3.45;;;;;;;-4.82;100.00;96822.66;1223929;75;2921327;-65
2024/01/16 03:00:59;;;;;;;4.75;3.20;;;;;;;-4.73;100.00;96824.88;1222605;75;3067822;-64
2024/01/16 03:03:32;;;;;;;5.65;3.20;;;;;;;-4.86;100.00;96840.59;1225038;75;2920010;-63
2024/01/16 03:06:04;;;;;;;5.05;3.10;;;;;;;-4.84;100.00;96838.31;1225207;75;2915469;-63
2024/01/16 03:08:37;;;;;;;4.15;2.80;;;;;;;-4.89;100.00;96833.41;1224869;75;2921275;-64
2024/01/16 03:11:13;;;;;;;5.15;3.40;;;;;;;-5.02;100.00;96841.13;1225205;75;2912764;-66
2024/01/16 03:13:46;;;;;;;5.35;3.30;;;;;;;-4.93;100.00;96846.78;1224991;75;2943089;-66
2024/01/16 03:16:18;;;;;;;3.80;2.80;;;;;;;-5.06;100.00;96845.72;1225129;75;2921207;-65
2024/01/16 03:18:51;;;;;;;3.80;2.50;;;;;;;-5.03;100.00;96846.84;1210166;83;4079706;-63
2024/01/16 03:21:24;;;;;;;4.35;3.20;;;;;;;-5.27;100.00;96856.53;1224634;75;2920165;-64
2024/01/16 03:23:57;;;;;;;5.90;3.40;;;;;;;-5.23;100.00;96858.03;1221564;75;3004300;-67
2024/01/16 03:26:32;;;;;;;4.30;3.30;;;;;;;-5.15;100.00;96854.19;1225381;75;2922228;-65
2024/01/16 03:29:06;;;;;;;3.85;2.60;;;;;;;-5.22;100.00;96854.22;1224553;75;2918273;-66
2024/01/16 03:31:38;;;;;;;4.40;3.05;;;;;;;-5.27;100.00;96867.19;1225625;75;2914305;-63
2024/01/16 03:34:11;;;;;;;4.60;3.10;;;;;;;-5.42;100.00;96871.84;1224707;75;2916033;-67
2024/01/16 03:36:44;;;;;;;5.60;3.50;;;;;;;-5.38;100.00;96864.59;1224682;75;2920175;-63
2024/01/16 03:39:17;;;;;;;4.15;2.90;;;;;;;-5.28;100.00;96868.34;1224712;75;2919887;-64
2024/01/16 03:41:52;;;;;;;4.95;3.40;;;;;;;-5.56;100.00;96870.00;1225689;75;2918310;-63
2024/01/16 03:44:25;;;;;;;4.15;3.10;;;;;;;-5.50;100.00;96873.03;1224084;75;2918786;-64
2024/01/16 03:46:58;;;;;;;4.95;3.70;;;;;;;-5.53;100.00;96871.91;1224372;75;2919467;-66
2024/01/16 03:49:32;;;;;;;4.40;2.95;;;;;;;-5.47;100.00;96877.59;1224524;75;2930128;-66
2024/01/16 03:52:05;;;;;;;3.25;2.40;;;;;;;-5.42;100.00;96885.19;1224387;75;2941578;-65
2024/01/16 03:54:38;;;;;;;7.75;4.90;;;;;;;-5.58;100.00;96875.75;1225396;75;2919116;-65
2024/01/16 03:57:14;;;;;;;5.85;3.95;;;;;;;-5.62;100.00;96877.66;1224957;75;2919853;-66
2024/01/16 03:59:46;;;;;;;5.25;3.95;;;;;;;-5.59;100.00;96894.78;1225316;75;2926224;-62
2024/01/16 04:02:20;;;;;;;5.55;4.25;;;;;;;-5.86;100.00;96895.25;1224949;75;2944896;-65
2024/01/16 04:04:52;;;;;;;5.60;3.50;;;;;;;-5.68;100.00;96894.44;1225450;75;2923755;-65
2024/01/16 04:07:27;;;;;;;4.60;3.55;;;;;;;-5.82;100.00;96893.34;1224985;75;2919223;-66
2024/01/16 04:10:01;;;;;;;4.30;3.00;;;;;;;-5.76;100.00;96895.63;1225165;75;2924496;-63
2024/01/16 04:12:36;;;;;;;7.60;4.20;;;;;;;-5.98;100.00;96902.94;1224381;75;2919197;-65
2024/01/16 04:15:11;;;;;;;4.60;3.35;;;;;;;-5.82;100.00;96904.00;1224249;75;2923709;-66
2024/01/16 04:17:44;;;;;;;3.90;3.05;;;;;;;-5.79;100.00;96903.22;1223633;75;2918034;-64
2024/01/16 04:20:17;;;;;;;5.30;3.60;;;;;;;-5.90;100.00;96899.81;1224852;75;2920369;-65
2024/01/16 04:22:50;;;;;;;4.75;3.15;;;;;;;-5.76;100.00;96915.03;1224689;75;2921353;-65
2024/01/16 04:25:23;;;;;;;4.85;3.05;;;;;;;-5.70;100.00;96902.84;1223837;75;2918220;-63
2024/01/16 04:27:58;;;;;;;4.10;2.75;;;;;;;-5.85;100.00;96914.66;1224665;75;2920772;-67
2024/01/16 04:30:31;;;;;;;2.90;2.10;;;;;;;-5.77;100.00;96910.84;1224970;75;2921525;-66
2024/01/16 04:33:04;;;;;;;2.50;2.00;;;;;;;-5.75;100.00;96921.88;1224650;75;2919429;-64
2024/01/16 04:35:36;;;;;;;2.15;1.80;;;;;;;-5.78;100.00;96917.31;1225323;75;2924456;-65
2024/01/16 04:38:09;;;;;;;2.60;1.90;;;;;;;-5.85;100.00;96920.00;1224024;75;2921328;-62
2024/01/16 04:40:42;;;;;;;2.20;1.90;;;;;;;-5.75;100.00;96924.53;1224351;75;2913353;-62
2024/01/16 04:43:18;;;;;;;2.00;1.80;;;;;;;-5.73;100.00;96929.50;1224838;75;2926471;-63
2024/01/16 04:45:50;;;;;;;3.00;2.25;;;;;;;-5.78;100.00;96930.63;1224897;75;2919170;-63
2024/01/16 04:48:23;;;;;;;2.35;2.05;;;;;;;-5.63;100.00;96942.00;1224819;75;2921210;-65
2024/01/16 04:50:56;;;;;;;2.85;2.10;;;;;;;-5.73;100.00;96948.91;1225075;75;2922705;-64
2024/01/16 04:53:29;;;;;;;4.90;2.20;;;;;;;-5.68;100.00;96943.16;1224243;75;2920337;-64
2024/01/16 04:56:02;;;;;;;2.20;1.80;;;;;;;-5.58;100.00;96947.72;1224916;75;2921313;-65
2024/01/16 04:58:38;;;;;;;3.10;2.05;;;;;;;-5.63;100.00;96948.13;1224517;75;2921466;-62
2024/01/16 05:01:10;;;;;;;2.65;2.05;;;;;;;-5.58;100.00;96954.94;1224494;75;2917673;-65
2024/01/16 05:03:43;;;;;;;2.80;1.90;;;;;;;-5.59;100.00;96954.19;1223683;75;2933988;-65
2024/01/16 05:06:19;;;;;;;2.15;1.75;;;;;;;-5.58;100.00;96962.94;1224653;75;2919612;-62
2024/01/16 05:08:52;;;;;;;2.25;1.50;;;;;;;-5.60;99.14;96971.34;1223006;75;2917946;-66
2024/01/16 05:11:25;;;;;;;2.45;1.95;;;;;;;-5.52;99.76;96979.34;1222514;75;2925766;-65
2024/01/16 05:14:00;;;;;;;4.05;2.20;;;;;;;-5.42;97.24;96987.28;1223348;75;2922646;-63
2024/01/16 05:16:33;;;;;;;6.70;4.25;;;;;;;-5.64;100.00;96975.91;1222507;75;2931731;-63
2024/01/16 05:19:06;;;;;;;8.80;4.35;;;;;;;-5.51;100.00;96972.84;1223473;75;2927539;-66
2024/01/16 05:21:38;;;;;;;5.65;3.25;;;;;;;-5.53;99.63;96983.13;1223691;75;2932270;-64
2024/01/16 05:24:12;;;;;;;7.80;4.00;;;;;;;-5.35;97.68;96989.19;1224036;75;2924738;-63
2024/01/16 05:26:45;;;;;;;22.10;12.00;;;;;;;-5.54;98.07;96984.28;1224404;75;2929327;-63
2024/01/16 05:29:21;;;;;;;18.70;11.55;;;;;;;-5.48;99.43;96985.41;1223965;75;2920878;-63
2024/01/16 05:31:54;;;;;;;12.35;6.55;;;;;;;-5.38;100.00;96988.03;1222545;75;2928532;-62
2024/01/16 05:34:27;;;;;;;9.00;6.20;;;;;;;-5.27;98.36;96992.56;1223609;75;2930322;-64
2024/01/16 05:37:00;;;;;;;6.90;5.00;;;;;;;-5.32;98.06;96996.41;1224136;75;2941692;-64
2024/01/16 05:39:33;;;;;;;8.70;5.00;;;;;;;-5.38;96.44;96996.03;1223612;75;2935440;-62
2024/01/16 05:42:06;;;;;;;9.65;6.10;;;;;;;-5.46;95.49;96999.09;1224054;75;2914765;-65
2024/01/16 05:44:41;;;;;;;7.55;4.70;;;;;;;-5.40;96.48;97001.00;1224087;75;2917692;-62
2024/01/16 05:47:14;;;;;;;6.40;4.50;;;;;;;-5.47;96.59;97005.59;1223044;75;2954148;-61
2024/01/16 05:49:47;;;;;;;9.95;5.05;;;;;;;-5.60;99.64;97008.69;1224036;75;2920220;-65
2024/01/16 05:52:23;;;;;;;8.20;4.55;;;;;;;-5.38;98.42;97011.28;1224295;75;2920044;-63
2024/01/16 05:54:57;;;;;;;6.60;4.30;;;;;;;-5.31;97.95;97013.19;1224505;75;2921070;-62
2024/01/16 05:57:31;;;;;;;6.20;4.90;;;;;;;-5.23;96.42;97010.09;1223957;75;2916641;-64
2024/01/16 06:00:08;;;;;;;6.85;4.60;;;;;;;-5.39;95.58;97017.75;1224463;75;2920033;-64
2024/01/16 06:02:40;;;;;;;6.15;4.25;;;;;;;-5.30;93.38;97026.13;1224553;75;2919527;-64
2024/01/16 06:05:13;;;;;;;5.05;3.60;;;;;;;-5.47;96.03;97022.34;1223705;75;2922580;-64
2024/01/16 06:07:46;;;;;;;6.45;4.30;;;;;;;-5.40;95.41;97033.00;1223988;75;2921103;-61
2024/01/16 06:10:19;;;;;;;6.15;3.85;;;;;;;-5.32;94.29;97028.41;1224239;75;2927428;-65
2024/01/16 06:12:52;;;;;;;5.40;3.70;;;;;;;-5.39;93.99;97031.88;1224984;75;2926864;-63
2024/01/16 06:15:28;;;;;;;6.85;4.20;;;;;;;-5.27;93.74;97029.91;1224138;75;2922564;-65
2024/01/16 06:18:00;;;;;;;5.95;3.75;;;;;;;-5.47;92.18;97038.34;1224379;75;2923063;-64
2024/01/16 06:20:33;;;;;;;7.85;4.05;;;;;;;-5.44;92.28;97037.59;1224037;75;2924885;-62
2024/01/16 06:23:06;;;;;;;6.20;3.70;;;;;;;-5.41;94.48;97039.50;1223273;75;2927558;-66
2024/01/16 06:25:39;;;;;;;7.70;5.40;;;;;;;-5.45;94.03;97037.97;1223784;75;2922055;-63
2024/01/16 06:28:12;;;;;;;7.70;4.35;;;;;;;-5.40;93.29;97049.00;1224773;75;2925592;-61
2024/01/16 06:30:47;;;;;;;7.45;4.30;;;;;;;-5.47;94.70;97054.34;1223710;75;2935576;-62
2024/01/16 06:33:20;;;;;;;15.45;9.15;;;;;;;-5.83;98.60;97066.97;1223949;75;2917405;-63
2024/01/16 06:35:53;;;;;;;15.00;8.75;;;;;;;-5.59;98.67;97076.84;1220584;75;2927120;-66
2024/01/16 06:38:26;;;;;;;17.10;9.80;;;;;;;-5.42;95.35;97075.31;1223608;75;2923000;-64
2024/01/16 06:40:59;;;;;;;18.75;10.35;;;;;;;-5.53;97.50;97074.56;1224144;75;2929672;-66
2024/01/16 06:43:31;;;;;;;14.75;9.50;;;;;;;-5.54;96.24;97075.69;1224422;75;2920920;-64
2024/01/16 06:46:07;;;;;;;15.20;9.50;;;;;;;-5.55;96.72;97084.09;1215472;75;2921171;-63
2024/01/16 06:48:41;;;;;;;10.30;6.85;;;;;;;-5.61;99.00;97089.78;1222944;75;2926451;-63
2024/01/16 06:51:14;;;;;;;10.90;7.45;;;;;;;-5.67;100.00;97088.69;1221801;75;2929872;-64
2024/01/16 06:53:46;;;;;;;13.15;7.50;;;;;;;-5.80;100.00;97096.31;1223572;75;2927220;-64
2024/01/16 06:56:19;;;;;;;9.50;6.65;;;;;;;-5.75;100.00;97092.47;1221328;75;2924786;-63
2024/01/16 06:58:52;;;;;;;7.95;5.55;;;;;;;-5.59;100.00;97095.50;1223649;75;2924298;-61
2024/01/16 07:01:28;;;;;;;8.55;5.05;;;;;;;-5.52;99.06;97096.66;1221507;75;2923628;-62
2024/01/16 07:04:01;;;;;;;8.60;5.00;;;;;;;-5.49;99.05;97107.31;1224426;75;2925509;-63
2024/01/16 07:06:34;;;;;;;7.00;4.55;;;;;;;-5.50;98.00;97108.47;1221390;75;2924925;-67
2024/01/16 07:09:10;;;;;;;6.50;4.00;;;;;;;-5.42;96.88;97115.31;1224002;75;2923459;-62
2024/01/16 07:11:43;;;;;;;7.65;4.65;;;;;;;-5.51;98.24;97122.94;1222424;75;2934113;-66
2024/01/16 07:14:17;;;;;;;6.25;4.15;;;;;;;-5.35;97.50;97125.97;1222483;75;2916909;-65
2024/01/16 07:16:52;;;;;;;7.30;4.70;;;;;;;-5.58;99.27;97138.94;1222001;75;2925690;-62
2024/01/16 07:19:25;;;;;;;9.65;5.35;;;;;;;-5.47;98.58;97141.63;1224148;75;2922684;-62
2024/01/16 07:21:58;;;;;;;16.30;8.10;;;;;;;-5.32;98.18;97145.78;1220510;75;2920325;-64
2024/01/16 07:24:31;;;;;;;13.35;7.20;;;;;;;-5.19;96.95;97140.84;1223038;75;2921162;-65
2024/01/16 07:27:03;;;;;;;14.35;7.30;;;;;;;-5.18;96.44;97151.09;1223018;75;2923466;-64
2024/01/16 07:29:36;;;;;;;11.85;5.90;;;;;;;-5.34;100.00;97153.41;1223008;75;2928023;-59
2024/01/16 07:32:13;;;;;;;12.55;7.15;;;;;;;-5.01;99.87;97154.13;1222699;75;2918536;-60
2024/01/16 07:34:45;;;;;;;11.30;6.55;;;;;;;-4.82;98.58;97160.97;1221179;75;2933650;-65
2024/01/16 07:37:18;;;;;;;11.85;6.75;;;;;;;-4.72;96.93;97154.81;1223410;75;2920955;-63
2024/01/16 07:39:51;;;;;;;10.55;6.55;;;;;;;-4.50;96.43;97150.94;1222266;75;2926441;-65
2024/01/16 07:42:33;;;;;;;11.10;5.25;;;;;;;-4.28;93.67;97158.88;1224174;75;2917031;-62
2024/01/16 07:45:09;;;;;;;6.85;4.60;;;;;;;-4.17;91.83;97150.78;1221337;75;2923531;-64
2024/01/16 07:47:44;;;;;;;6.20;4.50;;;;;;;-4.05;91.26;97162.94;1223267;75;2923267;-65
2024/01/16 07:50:17;;;;;;;4.80;3.60;;;;;;;-4.09;89.94;97162.94;1189729;75;5243810;-65
2024/01/16 07:52:50;;;;;;;5.70;4.00;;;;;;;-3.86;88.72;97167.78;1222969;75;2926976;-65
2024/01/16 07:55:23;;;;;;;5.35;3.90;;;;;;;-3.48;88.13;97166.00;1221733;75;2951511;-62
2024/01/16 07:57:58;;;;;;;4.30;3.05;;;;;;;-2.86;86.29;97171.56;1223055;75;2923994;-65
2024/01/16 08:00:30;;;;;;;4.05;2.85;;;;;;;-1.31;79.18;97169.19;1221670;75;2919220;-63
2024/01/16 08:03:07;;;;;;;4.75;2.60;;;;;;;0.20;72.44;97179.81;1220310;75;3088100;-60
2024/01/16 08:05:40;;;;;;;6.65;3.25;;;;;;;1.19;66.94;97172.50;1197913;75;4582122;-65
2024/01/16 08:08:13;;;;;;;5.10;3.75;;;;;;;2.20;63.47;97176.66;1223482;75;2942160;-64
2024/01/16 08:10:46;;;;;;;6.50;4.60;;;;;;;3.05;60.94;97187.91;1222464;75;2923801;-67
2024/01/16 08:13:19;;;;;;;10.30;6.70;;;;;;;2.35;61.69;97193.19;1225101;75;2920241;-62
2024/01/16 08:15:52;;;;;;;10.25;6.95;;;;;;;3.42;58.42;97183.59;1222092;75;2924771;-63
2024/01/16 08:18:27;;;;;;;7.30;5.65;;;;;;;2.12;61.70;97180.75;1225691;75;2927227;-63
2024/01/16 08:21:00;;;;;;;7.00;4.45;;;;;;;2.26;61.38;97179.56;1222388;75;2923710;-62
2024/01/16 08:23:33;;;;;;;10.60;6.20;;;;;;;1.40;61.48;97184.69;1223858;75;2924005;-62
2024/01/16 08:26:06;;;;;;;9.05;6.20;;;;;;;1.58;62.39;97190.34;1222088;75;2923797;-61
2024/01/16 08:28:39;;;;;;;10.45;4.85;;;;;;;2.47;60.42;97197.81;1224111;75;2922217;-62
2024/01/16 08:31:12;;;;;;;7.80;5.05;;;;;;;2.62;58.39;97200.09;1221046;75;2935427;-62
2024/01/16 08:33:48;;;;;;;8.85;5.60;;;;;;;2.04;61.55;97192.94;1224056;75;2922017;-62
2024/01/16 08:36:21;;;;;;;6.40;4.40;;;;;;;1.90;60.67;97192.16;1221373;75;2920030;-64
2024/01/16 08:38:55;;;;;;;8.40;4.55;;;;;;;1.79;60.51;97183.59;1225322;75;2927236;-66
2024/01/16 08:41:27;;;;;;;8.00;5.40;;;;;;;1.06;61.93;97192.06;1222391;75;2924734;-64
2024/01/16 08:44:00;;;;;;;8.60;5.40;;;;;;;1.39;63.20;97193.94;1225092;75;2922891;-63
2024/01/16 08:46:34;;;;;;;9.20;5.75;;;;;;;2.02;62.42;97192.59;1221221;75;2928855;-65
2024/01/16 08:49:09;;;;;;;7.70;4.90;;;;;;;1.77;60.32;97180.56;1223488;75;2928969;-64
2024/01/16 08:51:42;;;;;;;7.45;4.80;;;;;;;2.52;60.35;97197.28;1222789;75;2928085;-64
2024/01/16 08:54:15;;;;;;;5.65;3.90;;;;;;;2.51;59.52;97192.31;1223704;75;2930760;-64
2024/01/16 08:56:48;;;;;;;5.80;3.90;;;;;;;2.48;60.38;97193.19;1221290;75;2923063;-66
2024/01/16 08:59:21;;;;;;;11.05;6.95;;;;;;;2.22;60.90;97184.31;1223714;75;2917834;-63
2024/01/16 09:01:54;;;;;;;9.40;5.65;;;;;;;1.75;60.51;97198.38;1221252;75;2926084;-63
2024/01/16 09:04:29;;;;;;;8.80;4.90;;;;;;;2.63;59.78;97196.97;1220124;75;3194647;-65
2024/01/16 09:07:04;;;;;;;9.45;5.00;;;;;;;2.34;60.67;97195.13;1223855;75;2932814;-67
2024/01/16 09:09:37;;;;;;;7.60;4.10;;;;;;;3.65;60.33;97195.94;1224967;75;2929647;-64
2024/01/16 09:12:10;;;;;;;7.10;4.20;;;;;;;3.65;57.44;97193.22;1221766;75;2920181;-64
2024/01/16 09:14:43;;;;;;;7.15;4.10;;;;;;;3.52;58.17;97192.53;1222321;75;2934845;-64
2024/01/16 09:17:16;;;;;;;8.00;4.15;;;;;;;3.91;55.53;97199.28;1220832;75;2926028;-65
2024/01/16 09:19:52;;;;;;;6.05;4.00;;;;;;;4.72;54.41;97206.75;1224536;75;2928568;-64
2024/01/16 09:22:26;;;;;;;9.60;4.85;;;;;;;4.10;53.92;97208.25;1221840;75;2925319;-64
2024/01/16 09:24:59;;;;;;;7.55;4.00;;;;;;;5.47;51.06;97190.13;1223334;75;2922136;-65
2024/01/16 09:27:32;;;;;;;6.55;3.80;;;;;;;6.65;48.66;97190.34;1221668;75;2922845;-66
2024/01/16 09:30:05;;;;;;;8.35;3.80;;;;;;;7.03;46.38;97199.84;1223610;75;2933681;-65
2024/01/16 09:32:37;;;;;;;6.60;3.60;;;;;;;6.44;45.00;97194.06;1221412;75;2919661;-66
2024/01/16 09:35:14;;;;;;;4.35;2.70;;;;;;;7.46;43.12;97195.75;1223628;75;2918428;-65
2024/01/16 09:37:47;;;;;;;4.80;2.70;;;;;;;6.81;41.55;97206.28;1221987;75;2919807;-66
2024/01/16 09:40:20;;;;;;;4.10;2.40;;;;;;;7.31;42.21;97199.63;1223998;75;2921036;-65
2024/01/16 09:42:53;;;;;;;4.25;2.70;;;;;;;7.68;42.24;97203.59;1223111;75;2921986;-65
2024/01/16 09:45:27;;;;;;;3.85;2.95;;;;;;;7.61;40.83;97201.22;1225163;75;2926420;-65
2024/01/16 09:48:02;;;;;;;5.45;3.00;;;;;;;7.53;41.37;97207.50;1222640;75;2919698;-65
2024/01/16 09:50:38;;;;;;;8.45;2.55;;;;;;;7.49;40.91;97202.25;1225502;75;2928909;-63
2024/01/16 09:53:11;;;;;;;6.30;2.75;;;;;;;9.16;39.52;97205.47;1222945;75;2934882;-62
2024/01/16 09:55:44;;;;;;;5.15;2.60;;;;;;;9.63;37.67;97199.28;1224741;67;2920665;-65
2024/01/16 09:58:17;;;;;;;5.30;2.50;;;;;;;9.74;39.01;97191.19;1221317;75;2919662;-68
2024/01/16 10:00:52;;;;;;;5.00;2.50;;;;;;;10.25;36.72;97186.97;1222992;75;2917844;-64
2024/01/16 10:03:26;;;;;;;3.20;2.10;;;;;;;10.12;36.46;97192.81;1222336;75;2922429;-64
2024/01/16 10:06:02;;;;;;;6.95;2.50;;;;;;;9.68;37.46;97193.13;1223010;75;2912592;-65
2024/01/16 10:08:36;;;;;;;4.40;2.30;;;;;;;11.93;35.37;97186.38;1222145;75;2925251;-66
2024/01/16 10:11:09;;;;;;;3.10;1.90;;;;;;;13.87;34.18;97178.75;1224047;75;2918611;-65
2024/01/16 10:13:43;;;;;;;2.80;1.70;;;;;;;14.44;31.16;97163.31;1222864;75;2925644;-64
2024/01/16 10:16:15;;;;;;;3.80;2.00;;;;;;;12.74;32.38;97165.41;1222174;75;2921546;-64
2024/01/16 10:18:48;;;;;;;2.50;1.60;;;;;;;16.15;30.26;97158.81;1223697;75;2919620;-64
2024/01/16 10:21:32;;;;;;;2.45;1.55;;;;;;;17.62;28.57;97159.69;1221979;75;2917233;-66
2024/01/16 10:24:15;;;;;;;2.10;1.40;;;;;;;17.99;26.89;97154.38;1222921;75;2925144;-65
2024/01/16 10:26:48;;;;;;;4.85;1.70;;;;;;;18.63;25.20;97136.47;1224434;75;2922994;-66
2024/01/16 10:29:21;;;;;;;2.25;1.35;;;;;;;19.45;25.23;97128.44;1222877;75;2924890;-66
2024/01/16 10:31:55;;;;;;;2.40;1.55;;;;;;;19.31;24.73;97132.63;1223233;75;2927644;-66
2024/01/16 10:34:28;;;;;;;2.70;1.20;;;;;;;16.99;24.97;97137.31;1222785;75;2929383;-65
2024/01/16 10:37:05;;;;;;;1.95;1.20;;;;;;;17.99;25.11;97146.06;1223278;75;2921517;-65
2024/01/16 10:39:39;;;;;;;2.40;1.25;;;;;;;15.37;26.52;97140.56;1221742;75;2918683;-65
2024/01/16 10:42:11;;;;;;;3.60;1.40;;;;;;;14.21;27.15;97137.97;1223614;75;2926909;-67
2024/01/16 10:44:57;;;;;;;1.90;1.00;;;;;;;15.13;27.22;97137.34;1222111;75;2925351;-65
2024/01/16 10:47:30;;;;;;;2.65;1.50;;;;;;;13.34;27.64;97151.25;1224375;75;2919946;-64
2024/01/16 10:50:03;;;;;;;6.10;1.65;;;;;;;12.81;28.38;97141.44;1221696;75;2939840;-65
2024/01/16 10:52:43;;;;;;;2.00;1.20;;;;;;;13.75;28.27;97136.03;1224137;75;2920291;-64
2024/01/16 10:55:24;;;;;;;1.55;0.90;;;;;;;14.61;27.52;97130.13;1219402;75;2927226;-64
2024/01/16 10:58:00;;;;;;;1.90;1.15;;;;;;;15.19;26.54;97144.81;1223913;75;2924377;-67
2024/01/16 11:00:34;;;;;;;2.55;1.35;;;;;;;14.43;26.40;97128.00;1222583;75;2923249;-67
2024/01/16 11:03:14;;;;;;;1.35;0.90;;;;;;;16.46;26.24;97128.94;1224243;75;2919333;-63
2024/01/16 11:05:49;;;;;;;3.95;1.65;;;;;;;14.19;26.39;97118.47;1223259;75;2924309;-65
2024/01/16 11:08:29;;;;;;;4.15;1.40;;;;;;;13.29;27.26;97116.28;1222155;75;2922630;-67
2024/01/16 11:11:03;;;;;;;1.70;1.10;;;;;;;12.56;26.74;97122.75;1223536;75;2925361;-65
2024/01/16 11:13:39;;;;;;;2.40;1.40;;;;;;;11.94;27.04;97111.06;1224896;75;2921846;-67
2024/01/16 11:16:13;;;;;;;1.90;1.30;;;;;;;11.91;27.51;97117.56;1223834;75;2921665;-66
2024/01/16 11:18:46;;;;;;;2.20;0.90;;;;;;;11.87;27.55;97117.03;1224753;75;2926374;-63
2024/01/16 11:21:20;;;;;;;1.75;1.05;;;;;;;12.98;26.90;97122.88;1223915;75;2917978;-64
2024/01/16 11:23:56;;;;;;;4.55;2.55;;;;;;;11.28;30.41;97118.63;1224390;75;2920426;-65
2024/01/16 11:26:36;;;;;;;10.75;2.95;;;;;;;10.74;34.30;97115.94;1223877;75;2920091;-64
2024/01/16 11:29:40;;;;;;;9.00;5.00;;;;;;;10.54;36.84;97112.09;1225872;75;2920884;-65
2024/01/16 11:32:33;;;;;;;7.50;4.40;;;;;;;9.92;37.74;97113.59;1225246;67;2922021;-65
2024/01/16 11:35:07;;;;;;;5.30;3.50;;;;;;;11.67;36.20;97110.50;1220478;75;2927265;-63
2024/01/16 11:37:43;;;;;;;8.20;4.15;;;;;;;11.67;35.16;97107.78;1223609;75;2922152;-64
2024/01/16 11:40:35;;;;;;;7.30;4.45;;;;;;;13.45;33.60;97103.72;1220114;75;2926279;-64
2024/01/16 11:43:46;;;;;;;6.35;4.45;;;;;;;12.43;34.83;97102.56;1224349;75;2945536;-66
2024/01/16 11:46:19;;;;;;;5.45;3.90;;;;;;;13.95;32.01;97090.88;1220416;75;2919157;-64